sensor_id;sensor_type;location;lat;lon;timestamp;P1;durP1;ratioP1;P2;durP2;ratioP2
61962;SDS011;47927;42.646;23.096;2022-10-22T00:01:50;17.73;;;8.75;;
61962;SDS011;47927;42.646;23.096;2022-10-22T00:04:15;16.92;;;9.45;;
61962;SDS011;47927;42.646;23.096;2022-10-22T00:06:41;20.08;;;8.95;;
61962;SDS011;47927;42.646;23.096;2022-10-22T00:09:09;16.75;;;9.25;;
61962;SDS011;47927;42.646;23.096;2022-10-22T00:11:38;20.77;;;10.02;;
61962;SDS011;47927;42.646;23.096;2022-10-22T00:14:04;16.92;;;8.30;;
61962;SDS011;47927;42.646;23.096;2022-10-22T00:16:30;13.95;;;8.38;;
61962;SDS011;47927;42.646;23.096;2022-10-22T00:18:56;14.43;;;8.45;;
61962;SDS011;47927;42.646;23.096;2022-10-22T00:21:21;19.17;;;8.38;;
61962;SDS011;47927;42.646;23.096;2022-10-22T00:23:47;16.33;;;9.27;;
61962;SDS011;47927;42.646;23.096;2022-10-22T00:26:12;17.17;;;9.90;;
61962;SDS011;47927;42.646;23.096;2022-10-22T00:28:38;18.38;;;9.27;;
61962;SDS011;47927;42.646;23.096;2022-10-22T00:31:04;15.40;;;9.10;;
61962;SDS011;47927;42.646;23.096;2022-10-22T00:33:31;20.25;;;8.57;;
61962;SDS011;47927;42.646;23.096;2022-10-22T00:35:57;23.35;;;8.88;;
61962;SDS011;47927;42.646;23.096;2022-10-22T00:38:23;13.82;;;8.30;;
61962;SDS011;47927;42.646;23.096;2022-10-22T00:40:49;15.35;;;8.32;;
61962;SDS011;47927;42.646;23.096;2022-10-22T00:43:15;15.55;;;8.23;;
61962;SDS011;47927;42.646;23.096;2022-10-22T00:45:42;24.73;;;9.23;;
61962;SDS011;47927;42.646;23.096;2022-10-22T00:48:15;14.40;;;8.65;;
61962;SDS011;47927;42.646;23.096;2022-10-22T00:50:53;17.65;;;8.50;;
61962;SDS011;47927;42.646;23.096;2022-10-22T00:53:35;22.73;;;8.82;;
61962;SDS011;47927;42.646;23.096;2022-10-22T00:56:03;16.35;;;8.68;;
61962;SDS011;47927;42.646;23.096;2022-10-22T00:58:31;22.15;;;8.60;;
61962;SDS011;47927;42.646;23.096;2022-10-22T01:01:00;17.17;;;7.60;;
61962;SDS011;47927;42.646;23.096;2022-10-22T01:03:26;16.23;;;8.57;;
61962;SDS011;47927;42.646;23.096;2022-10-22T01:05:56;13.88;;;8.70;;
61962;SDS011;47927;42.646;23.096;2022-10-22T01:08:27;17.63;;;8.82;;
61962;SDS011;47927;42.646;23.096;2022-10-22T01:11:20;13.75;;;7.85;;
61962;SDS011;47927;42.646;23.096;2022-10-22T01:14:12;14.13;;;8.60;;
61962;SDS011;47927;42.646;23.096;2022-10-22T01:19:33;25.38;;;11.95;;
61962;SDS011;47927;42.646;23.096;2022-10-22T01:22:13;22.95;;;12.00;;
61962;SDS011;47927;42.646;23.096;2022-10-22T01:30:21;26.98;;;10.45;;
61962;SDS011;47927;42.646;23.096;2022-10-22T01:32:49;31.55;;;13.57;;
61962;SDS011;47927;42.646;23.096;2022-10-22T01:35:22;32.38;;;11.60;;
61962;SDS011;47927;42.646;23.096;2022-10-22T01:37:58;32.20;;;15.35;;
61962;SDS011;47927;42.646;23.096;2022-10-22T01:40:28;21.58;;;11.77;;
61962;SDS011;47927;42.646;23.096;2022-10-22T01:45:20;55.90;;;22.73;;
61962;SDS011;47927;42.646;23.096;2022-10-22T01:58:54;13.63;;;7.97;;
61962;SDS011;47927;42.646;23.096;2022-10-22T02:04:12;12.50;;;7.80;;
61962;SDS011;47927;42.646;23.096;2022-10-22T02:06:44;11.07;;;7.85;;
61962;SDS011;47927;42.646;23.096;2022-10-22T02:09:14;16.08;;;8.32;;
61962;SDS011;47927;42.646;23.096;2022-10-22T02:11:42;13.82;;;8.50;;
61962;SDS011;47927;42.646;23.096;2022-10-22T02:14:10;13.65;;;7.90;;
61962;SDS011;47927;42.646;23.096;2022-10-22T02:16:44;13.98;;;8.60;;
61962;SDS011;47927;42.646;23.096;2022-10-22T02:22:01;18.73;;;9.52;;
61962;SDS011;47927;42.646;23.096;2022-10-22T02:24:27;12.93;;;8.02;;
61962;SDS011;47927;42.646;23.096;2022-10-22T02:27:11;12.63;;;8.15;;
61962;SDS011;47927;42.646;23.096;2022-10-22T02:30:25;13.70;;;7.25;;
61962;SDS011;47927;42.646;23.096;2022-10-22T02:32:31;21.17;;;8.05;;
61962;SDS011;47927;42.646;23.096;2022-10-22T02:35:00;13.57;;;8.35;;
61962;SDS011;47927;42.646;23.096;2022-10-22T02:37:28;15.07;;;7.85;;
61962;SDS011;47927;42.646;23.096;2022-10-22T02:39:54;16.85;;;8.68;;
61962;SDS011;47927;42.646;23.096;2022-10-22T02:42:21;11.70;;;7.20;;
61962;SDS011;47927;42.646;23.096;2022-10-22T02:44:49;12.27;;;7.35;;
61962;SDS011;47927;42.646;23.096;2022-10-22T02:47:14;14.10;;;8.25;;
61962;SDS011;47927;42.646;23.096;2022-10-22T02:49:40;15.38;;;8.10;;
61962;SDS011;47927;42.646;23.096;2022-10-22T02:52:05;13.88;;;8.13;;
61962;SDS011;47927;42.646;23.096;2022-10-22T02:54:31;10.38;;;6.65;;
61962;SDS011;47927;42.646;23.096;2022-10-22T02:56:56;12.02;;;7.63;;
61962;SDS011;47927;42.646;23.096;2022-10-22T02:59:22;10.35;;;7.50;;
61962;SDS011;47927;42.646;23.096;2022-10-22T03:01:47;12.27;;;7.47;;
61962;SDS011;47927;42.646;23.096;2022-10-22T03:04:13;16.60;;;7.70;;
61962;SDS011;47927;42.646;23.096;2022-10-22T03:06:38;15.45;;;7.70;;
61962;SDS011;47927;42.646;23.096;2022-10-22T03:09:08;10.70;;;6.95;;
61962;SDS011;47927;42.646;23.096;2022-10-22T03:11:33;12.80;;;8.38;;
61962;SDS011;47927;42.646;23.096;2022-10-22T03:13:59;14.00;;;8.00;;
61962;SDS011;47927;42.646;23.096;2022-10-22T03:16:25;15.20;;;8.23;;
61962;SDS011;47927;42.646;23.096;2022-10-22T03:18:50;16.25;;;7.95;;
61962;SDS011;47927;42.646;23.096;2022-10-22T03:21:27;13.60;;;7.60;;
61962;SDS011;47927;42.646;23.096;2022-10-22T03:23:59;13.82;;;9.15;;
61962;SDS011;47927;42.646;23.096;2022-10-22T03:26:27;17.13;;;8.10;;
61962;SDS011;47927;42.646;23.096;2022-10-22T03:28:53;16.48;;;8.25;;
61962;SDS011;47927;42.646;23.096;2022-10-22T03:31:19;15.00;;;8.15;;
61962;SDS011;47927;42.646;23.096;2022-10-22T03:33:44;15.32;;;9.10;;
61962;SDS011;47927;42.646;23.096;2022-10-22T03:36:10;15.05;;;9.40;;
61962;SDS011;47927;42.646;23.096;2022-10-22T03:38:36;19.58;;;9.15;;
61962;SDS011;47927;42.646;23.096;2022-10-22T03:41:04;19.50;;;8.75;;
61962;SDS011;47927;42.646;23.096;2022-10-22T03:43:30;13.13;;;8.57;;
61962;SDS011;47927;42.646;23.096;2022-10-22T03:45:56;17.02;;;8.25;;
61962;SDS011;47927;42.646;23.096;2022-10-22T03:48:21;14.13;;;8.80;;
61962;SDS011;47927;42.646;23.096;2022-10-22T03:50:47;17.38;;;9.18;;
61962;SDS011;47927;42.646;23.096;2022-10-22T03:53:13;16.70;;;8.38;;
61962;SDS011;47927;42.646;23.096;2022-10-22T03:55:39;22.00;;;9.45;;
61962;SDS011;47927;42.646;23.096;2022-10-22T03:58:05;16.30;;;9.52;;
61962;SDS011;47927;42.646;23.096;2022-10-22T04:00:31;18.25;;;8.98;;
61962;SDS011;47927;42.646;23.096;2022-10-22T04:02:59;13.93;;;8.32;;
61962;SDS011;47927;42.646;23.096;2022-10-22T04:05:24;15.95;;;8.52;;
61962;SDS011;47927;42.646;23.096;2022-10-22T04:07:50;12.95;;;8.57;;
61962;SDS011;47927;42.646;23.096;2022-10-22T04:10:16;14.05;;;9.27;;
61962;SDS011;47927;42.646;23.096;2022-10-22T04:12:41;15.00;;;7.93;;
61962;SDS011;47927;42.646;23.096;2022-10-22T04:15:07;16.45;;;8.43;;
61962;SDS011;47927;42.646;23.096;2022-10-22T04:17:34;14.63;;;8.10;;
61962;SDS011;47927;42.646;23.096;2022-10-22T04:20:01;12.48;;;7.15;;
61962;SDS011;47927;42.646;23.096;2022-10-22T04:22:27;11.93;;;7.93;;
61962;SDS011;47927;42.646;23.096;2022-10-22T04:24:52;12.13;;;7.10;;
61962;SDS011;47927;42.646;23.096;2022-10-22T04:27:18;13.48;;;7.90;;
61962;SDS011;47927;42.646;23.096;2022-10-22T04:29:43;15.25;;;7.32;;
61962;SDS011;47927;42.646;23.096;2022-10-22T04:32:09;12.80;;;7.35;;
61962;SDS011;47927;42.646;23.096;2022-10-22T04:34:34;12.15;;;6.45;;
61962;SDS011;47927;42.646;23.096;2022-10-22T04:37:00;12.80;;;7.78;;
61962;SDS011;47927;42.646;23.096;2022-10-22T04:39:25;14.40;;;8.23;;
61962;SDS011;47927;42.646;23.096;2022-10-22T04:41:51;12.32;;;7.95;;
61962;SDS011;47927;42.646;23.096;2022-10-22T04:44:16;13.45;;;8.30;;
61962;SDS011;47927;42.646;23.096;2022-10-22T04:46:42;12.55;;;7.65;;
61962;SDS011;47927;42.646;23.096;2022-10-22T04:49:08;12.32;;;7.95;;
61962;SDS011;47927;42.646;23.096;2022-10-22T04:51:33;11.73;;;7.22;;
61962;SDS011;47927;42.646;23.096;2022-10-22T04:53:59;15.60;;;7.30;;
61962;SDS011;47927;42.646;23.096;2022-10-22T04:56:25;13.85;;;8.05;;
61962;SDS011;47927;42.646;23.096;2022-10-22T04:59:02;12.05;;;7.68;;
61962;SDS011;47927;42.646;23.096;2022-10-22T05:01:30;11.95;;;7.68;;
61962;SDS011;47927;42.646;23.096;2022-10-22T05:04:01;15.38;;;8.68;;
61962;SDS011;47927;42.646;23.096;2022-10-22T05:06:28;14.38;;;7.57;;
61962;SDS011;47927;42.646;23.096;2022-10-22T05:08:57;13.60;;;8.27;;
61962;SDS011;47927;42.646;23.096;2022-10-22T05:11:25;13.48;;;7.65;;
61962;SDS011;47927;42.646;23.096;2022-10-22T05:13:56;13.55;;;7.55;;
61962;SDS011;47927;42.646;23.096;2022-10-22T05:16:22;14.65;;;7.75;;
61962;SDS011;47927;42.646;23.096;2022-10-22T05:18:49;14.02;;;7.47;;
61962;SDS011;47927;42.646;23.096;2022-10-22T05:21:15;11.13;;;7.53;;
61962;SDS011;47927;42.646;23.096;2022-10-22T05:23:43;10.82;;;7.68;;
61962;SDS011;47927;42.646;23.096;2022-10-22T05:26:10;12.88;;;7.68;;
61962;SDS011;47927;42.646;23.096;2022-10-22T05:28:38;11.07;;;6.55;;
61962;SDS011;47927;42.646;23.096;2022-10-22T05:31:04;15.57;;;7.40;;
61962;SDS011;47927;42.646;23.096;2022-10-22T05:33:31;11.35;;;6.72;;
61962;SDS011;47927;42.646;23.096;2022-10-22T05:35:58;13.50;;;7.32;;
61962;SDS011;47927;42.646;23.096;2022-10-22T05:38:24;13.98;;;7.88;;
61962;SDS011;47927;42.646;23.096;2022-10-22T05:41:04;15.52;;;8.15;;
61962;SDS011;47927;42.646;23.096;2022-10-22T05:43:32;13.73;;;7.47;;
61962;SDS011;47927;42.646;23.096;2022-10-22T05:46:02;12.35;;;7.45;;
61962;SDS011;47927;42.646;23.096;2022-10-22T05:48:29;15.73;;;7.43;;
61962;SDS011;47927;42.646;23.096;2022-10-22T05:50:54;10.38;;;6.82;;
61962;SDS011;47927;42.646;23.096;2022-10-22T05:53:20;10.98;;;6.95;;
61962;SDS011;47927;42.646;23.096;2022-10-22T05:55:46;10.55;;;6.60;;
61962;SDS011;47927;42.646;23.096;2022-10-22T05:58:12;12.60;;;7.22;;
61962;SDS011;47927;42.646;23.096;2022-10-22T06:00:38;10.90;;;6.45;;
61962;SDS011;47927;42.646;23.096;2022-10-22T06:03:03;10.55;;;6.70;;
61962;SDS011;47927;42.646;23.096;2022-10-22T06:05:29;13.75;;;7.65;;
61962;SDS011;47927;42.646;23.096;2022-10-22T06:07:55;13.13;;;6.68;;
61962;SDS011;47927;42.646;23.096;2022-10-22T06:10:21;13.75;;;7.18;;
61962;SDS011;47927;42.646;23.096;2022-10-22T06:12:48;12.07;;;7.18;;
61962;SDS011;47927;42.646;23.096;2022-10-22T06:15:14;9.38;;;7.03;;
61962;SDS011;47927;42.646;23.096;2022-10-22T06:17:45;14.95;;;6.32;;
61962;SDS011;47927;42.646;23.096;2022-10-22T06:20:12;14.05;;;7.55;;
61962;SDS011;47927;42.646;23.096;2022-10-22T06:22:38;14.35;;;7.68;;
61962;SDS011;47927;42.646;23.096;2022-10-22T06:25:04;12.95;;;7.38;;
61962;SDS011;47927;42.646;23.096;2022-10-22T06:27:32;15.65;;;7.35;;
61962;SDS011;47927;42.646;23.096;2022-10-22T06:29:58;13.68;;;7.38;;
61962;SDS011;47927;42.646;23.096;2022-10-22T06:32:24;11.95;;;6.25;;
61962;SDS011;47927;42.646;23.096;2022-10-22T06:34:50;17.83;;;7.32;;
61962;SDS011;47927;42.646;23.096;2022-10-22T06:37:16;11.85;;;6.72;;
61962;SDS011;47927;42.646;23.096;2022-10-22T06:39:41;11.57;;;6.68;;
61962;SDS011;47927;42.646;23.096;2022-10-22T06:42:07;10.27;;;6.35;;
61962;SDS011;47927;42.646;23.096;2022-10-22T06:44:32;10.35;;;7.32;;
61962;SDS011;47927;42.646;23.096;2022-10-22T06:46:58;27.50;;;9.35;;
61962;SDS011;47927;42.646;23.096;2022-10-22T06:49:24;16.45;;;7.97;;
61962;SDS011;47927;42.646;23.096;2022-10-22T06:51:50;10.88;;;7.75;;
61962;SDS011;47927;42.646;23.096;2022-10-22T06:54:17;13.75;;;7.28;;
61962;SDS011;47927;42.646;23.096;2022-10-22T06:56:42;13.07;;;7.30;;
61962;SDS011;47927;42.646;23.096;2022-10-22T06:59:08;10.60;;;7.30;;
61962;SDS011;47927;42.646;23.096;2022-10-22T07:01:34;11.73;;;7.55;;
61962;SDS011;47927;42.646;23.096;2022-10-22T07:04:00;16.13;;;7.85;;
61962;SDS011;47927;42.646;23.096;2022-10-22T07:06:26;11.55;;;7.65;;
61962;SDS011;47927;42.646;23.096;2022-10-22T07:08:53;17.73;;;8.70;;
61962;SDS011;47927;42.646;23.096;2022-10-22T07:11:21;12.20;;;7.57;;
61962;SDS011;47927;42.646;23.096;2022-10-22T07:13:48;12.10;;;7.50;;
61962;SDS011;47927;42.646;23.096;2022-10-22T07:16:14;11.80;;;7.50;;
61962;SDS011;47927;42.646;23.096;2022-10-22T07:18:41;15.55;;;8.05;;
61962;SDS011;47927;42.646;23.096;2022-10-22T07:21:08;17.73;;;8.57;;
61962;SDS011;47927;42.646;23.096;2022-10-22T07:23:34;14.77;;;7.20;;
61962;SDS011;47927;42.646;23.096;2022-10-22T07:26:00;17.05;;;8.40;;
61962;SDS011;47927;42.646;23.096;2022-10-22T07:28:26;10.57;;;6.93;;
61962;SDS011;47927;42.646;23.096;2022-10-22T07:30:53;13.75;;;7.70;;
61962;SDS011;47927;42.646;23.096;2022-10-22T07:33:18;11.77;;;6.55;;
61962;SDS011;47927;42.646;23.096;2022-10-22T07:35:45;14.45;;;7.38;;
61962;SDS011;47927;42.646;23.096;2022-10-22T07:38:10;16.98;;;6.43;;
61962;SDS011;47927;42.646;23.096;2022-10-22T07:40:36;13.48;;;7.35;;
61962;SDS011;47927;42.646;23.096;2022-10-22T07:43:02;12.25;;;6.97;;
61962;SDS011;47927;42.646;23.096;2022-10-22T07:45:28;17.00;;;7.75;;
61962;SDS011;47927;42.646;23.096;2022-10-22T07:47:53;12.13;;;7.70;;
61962;SDS011;47927;42.646;23.096;2022-10-22T07:50:19;14.05;;;8.00;;
61962;SDS011;47927;42.646;23.096;2022-10-22T07:52:45;13.07;;;7.35;;
61962;SDS011;47927;42.646;23.096;2022-10-22T07:55:11;17.88;;;7.20;;
61962;SDS011;47927;42.646;23.096;2022-10-22T07:57:37;13.20;;;7.10;;
61962;SDS011;47927;42.646;23.096;2022-10-22T08:00:06;13.60;;;8.07;;
61962;SDS011;47927;42.646;23.096;2022-10-22T08:02:39;12.40;;;7.05;;
61962;SDS011;47927;42.646;23.096;2022-10-22T08:05:05;13.25;;;7.10;;
61962;SDS011;47927;42.646;23.096;2022-10-22T08:07:31;14.20;;;6.78;;
61962;SDS011;47927;42.646;23.096;2022-10-22T08:09:56;9.40;;;6.30;;
61962;SDS011;47927;42.646;23.096;2022-10-22T08:12:22;11.15;;;6.30;;
61962;SDS011;47927;42.646;23.096;2022-10-22T08:14:47;14.07;;;6.47;;
61962;SDS011;47927;42.646;23.096;2022-10-22T08:17:13;13.65;;;6.40;;
61962;SDS011;47927;42.646;23.096;2022-10-22T08:19:38;16.05;;;6.70;;
61962;SDS011;47927;42.646;23.096;2022-10-22T08:22:04;12.70;;;6.63;;
61962;SDS011;47927;42.646;23.096;2022-10-22T08:24:29;12.65;;;6.55;;
61962;SDS011;47927;42.646;23.096;2022-10-22T08:26:55;16.73;;;7.10;;
61962;SDS011;47927;42.646;23.096;2022-10-22T08:29:24;9.93;;;6.32;;
61962;SDS011;47927;42.646;23.096;2022-10-22T08:31:51;9.10;;;6.47;;
61962;SDS011;47927;42.646;23.096;2022-10-22T08:34:17;11.32;;;6.35;;
61962;SDS011;47927;42.646;23.096;2022-10-22T08:36:43;11.70;;;6.88;;
61962;SDS011;47927;42.646;23.096;2022-10-22T08:39:09;13.05;;;6.30;;
61962;SDS011;47927;42.646;23.096;2022-10-22T08:41:35;14.25;;;6.38;;
61962;SDS011;47927;42.646;23.096;2022-10-22T08:47:02;18.35;;;5.50;;
61962;SDS011;47927;42.646;23.096;2022-10-22T08:49:39;13.25;;;6.25;;
61962;SDS011;47927;42.646;23.096;2022-10-22T08:52:09;12.88;;;6.13;;
61962;SDS011;47927;42.646;23.096;2022-10-22T08:54:54;13.52;;;6.22;;
61962;SDS011;47927;42.646;23.096;2022-10-22T09:00:28;10.40;;;5.70;;
61962;SDS011;47927;42.646;23.096;2022-10-22T09:03:05;11.30;;;5.97;;
61962;SDS011;47927;42.646;23.096;2022-10-22T09:05:47;10.63;;;5.43;;
61962;SDS011;47927;42.646;23.096;2022-10-22T09:08:25;10.77;;;5.30;;
61962;SDS011;47927;42.646;23.096;2022-10-22T09:10:54;16.27;;;6.35;;
61962;SDS011;47927;42.646;23.096;2022-10-22T09:13:26;15.52;;;5.47;;
61962;SDS011;47927;42.646;23.096;2022-10-22T09:15:57;8.38;;;5.07;;
61962;SDS011;47927;42.646;23.096;2022-10-22T09:21:35;17.50;;;6.45;;
61962;SDS011;47927;42.646;23.096;2022-10-22T09:24:11;10.02;;;5.50;;
61962;SDS011;47927;42.646;23.096;2022-10-22T09:26:43;12.57;;;5.88;;
61962;SDS011;47927;42.646;23.096;2022-10-22T09:29:19;11.98;;;6.07;;
61962;SDS011;47927;42.646;23.096;2022-10-22T09:31:49;12.07;;;5.25;;
61962;SDS011;47927;42.646;23.096;2022-10-22T09:34:16;8.73;;;4.80;;
61962;SDS011;47927;42.646;23.096;2022-10-22T09:36:44;9.57;;;4.88;;
61962;SDS011;47927;42.646;23.096;2022-10-22T09:42:10;12.30;;;6.50;;
61962;SDS011;47927;42.646;23.096;2022-10-22T09:44:39;6.15;;;4.78;;
61962;SDS011;47927;42.646;23.096;2022-10-22T09:55:37;9.75;;;5.00;;
61962;SDS011;47927;42.646;23.096;2022-10-22T09:58:03;12.85;;;4.70;;
61962;SDS011;47927;42.646;23.096;2022-10-22T10:00:29;9.38;;;4.95;;
61962;SDS011;47927;42.646;23.096;2022-10-22T10:02:56;9.35;;;6.47;;
61962;SDS011;47927;42.646;23.096;2022-10-22T10:05:25;7.38;;;3.97;;
61962;SDS011;47927;42.646;23.096;2022-10-22T10:07:53;8.68;;;3.85;;
61962;SDS011;47927;42.646;23.096;2022-10-22T10:10:21;7.35;;;3.95;;
61962;SDS011;47927;42.646;23.096;2022-10-22T10:12:56;9.60;;;5.38;;
61962;SDS011;47927;42.646;23.096;2022-10-22T10:15:37;8.15;;;4.72;;
61962;SDS011;47927;42.646;23.096;2022-10-22T10:18:21;8.43;;;4.30;;
61962;SDS011;47927;42.646;23.096;2022-10-22T10:26:34;11.38;;;5.97;;
61962;SDS011;47927;42.646;23.096;2022-10-22T10:37:45;6.97;;;3.78;;
61962;SDS011;47927;42.646;23.096;2022-10-22T10:40:25;5.55;;;3.60;;
61962;SDS011;47927;42.646;23.096;2022-10-22T10:43:12;7.60;;;3.78;;
61962;SDS011;47927;42.646;23.096;2022-10-22T10:48:34;7.30;;;3.40;;
61962;SDS011;47927;42.646;23.096;2022-10-22T10:51:41;7.72;;;4.00;;
61962;SDS011;47927;42.646;23.096;2022-10-22T10:57:10;8.98;;;4.03;;
61962;SDS011;47927;42.646;23.096;2022-10-22T11:00:01;7.60;;;3.80;;
61962;SDS011;47927;42.646;23.096;2022-10-22T11:02:33;5.88;;;3.50;;
61962;SDS011;47927;42.646;23.096;2022-10-22T11:05:38;8.77;;;3.53;;
61962;SDS011;47927;42.646;23.096;2022-10-22T11:10:58;6.65;;;3.80;;
61962;SDS011;47927;42.646;23.096;2022-10-22T11:13:31;6.85;;;3.97;;
61962;SDS011;47927;42.646;23.096;2022-10-22T11:21:31;10.98;;;4.15;;
61962;SDS011;47927;42.646;23.096;2022-10-22T11:29:19;7.70;;;4.10;;
61962;SDS011;47927;42.646;23.096;2022-10-22T11:31:48;11.10;;;4.25;;
61962;SDS011;47927;42.646;23.096;2022-10-22T11:36:47;7.88;;;3.80;;
61962;SDS011;47927;42.646;23.096;2022-10-22T11:41:59;12.13;;;3.97;;
61962;SDS011;47927;42.646;23.096;2022-10-22T11:44:29;10.43;;;3.95;;
61962;SDS011;47927;42.646;23.096;2022-10-22T11:46:57;8.77;;;3.90;;
61962;SDS011;47927;42.646;23.096;2022-10-22T11:49:45;5.63;;;3.28;;
61962;SDS011;47927;42.646;23.096;2022-10-22T12:04:23;7.20;;;4.15;;
61962;SDS011;47927;42.646;23.096;2022-10-22T12:06:50;10.63;;;4.32;;
61962;SDS011;47927;42.646;23.096;2022-10-22T12:09:23;8.75;;;3.97;;
61962;SDS011;47927;42.646;23.096;2022-10-22T12:11:54;10.27;;;3.78;;
61962;SDS011;47927;42.646;23.096;2022-10-22T12:14:31;11.60;;;4.25;;
61962;SDS011;47927;42.646;23.096;2022-10-22T12:17:02;5.90;;;3.30;;
61962;SDS011;47927;42.646;23.096;2022-10-22T12:19:38;9.65;;;4.32;;
61962;SDS011;47927;42.646;23.096;2022-10-22T12:24:33;11.85;;;4.03;;
61962;SDS011;47927;42.646;23.096;2022-10-22T12:27:01;8.88;;;3.80;;
61962;SDS011;47927;42.646;23.096;2022-10-22T12:29:30;10.45;;;4.35;;
61962;SDS011;47927;42.646;23.096;2022-10-22T12:34:26;9.40;;;3.70;;
61962;SDS011;47927;42.646;23.096;2022-10-22T12:36:53;12.18;;;4.45;;
61962;SDS011;47927;42.646;23.096;2022-10-22T12:39:21;10.38;;;4.13;;
61962;SDS011;47927;42.646;23.096;2022-10-22T12:41:51;10.55;;;4.25;;
61962;SDS011;47927;42.646;23.096;2022-10-22T12:44:17;8.23;;;3.90;;
61962;SDS011;47927;42.646;23.096;2022-10-22T12:46:43;13.65;;;4.88;;
61962;SDS011;47927;42.646;23.096;2022-10-22T12:49:20;17.95;;;4.53;;
61962;SDS011;47927;42.646;23.096;2022-10-22T12:51:49;8.43;;;3.80;;
61962;SDS011;47927;42.646;23.096;2022-10-22T12:54:21;14.23;;;4.03;;
61962;SDS011;47927;42.646;23.096;2022-10-22T12:56:50;9.30;;;3.63;;
61962;SDS011;47927;42.646;23.096;2022-10-22T12:59:18;16.88;;;4.68;;
61962;SDS011;47927;42.646;23.096;2022-10-22T13:01:48;12.27;;;4.05;;
61962;SDS011;47927;42.646;23.096;2022-10-22T13:04:19;10.90;;;4.25;;
61962;SDS011;47927;42.646;23.096;2022-10-22T13:12:07;11.00;;;3.58;;
61962;SDS011;47927;42.646;23.096;2022-10-22T13:14:41;10.68;;;4.43;;
61962;SDS011;47927;42.646;23.096;2022-10-22T13:25:27;12.73;;;4.80;;
61962;SDS011;47927;42.646;23.096;2022-10-22T13:30:50;12.93;;;4.43;;
61962;SDS011;47927;42.646;23.096;2022-10-22T13:33:34;10.77;;;3.78;;
61962;SDS011;47927;42.646;23.096;2022-10-22T13:36:02;11.15;;;4.03;;
61962;SDS011;47927;42.646;23.096;2022-10-22T13:38:28;12.25;;;5.30;;
61962;SDS011;47927;42.646;23.096;2022-10-22T13:40:54;11.30;;;4.47;;
61962;SDS011;47927;42.646;23.096;2022-10-22T13:43:21;17.10;;;3.95;;
61962;SDS011;47927;42.646;23.096;2022-10-22T13:45:47;15.55;;;4.75;;
61962;SDS011;47927;42.646;23.096;2022-10-22T13:48:17;15.02;;;4.43;;
61962;SDS011;47927;42.646;23.096;2022-10-22T13:53:19;11.98;;;4.07;;
61962;SDS011;47927;42.646;23.096;2022-10-22T13:55:51;8.60;;;3.83;;
61962;SDS011;47927;42.646;23.096;2022-10-22T13:58:18;14.55;;;3.90;;
61962;SDS011;47927;42.646;23.096;2022-10-22T14:00:46;11.65;;;3.95;;
61962;SDS011;47927;42.646;23.096;2022-10-22T14:03:15;14.82;;;4.90;;
61962;SDS011;47927;42.646;23.096;2022-10-22T14:05:44;11.10;;;3.97;;
61962;SDS011;47927;42.646;23.096;2022-10-22T14:08:11;10.15;;;4.00;;
61962;SDS011;47927;42.646;23.096;2022-10-22T14:10:43;10.85;;;3.65;;
61962;SDS011;47927;42.646;23.096;2022-10-22T14:13:09;13.77;;;4.13;;
61962;SDS011;47927;42.646;23.096;2022-10-22T14:15:35;12.80;;;4.43;;
61962;SDS011;47927;42.646;23.096;2022-10-22T14:18:02;12.77;;;3.95;;
61962;SDS011;47927;42.646;23.096;2022-10-22T14:20:30;14.85;;;4.68;;
61962;SDS011;47927;42.646;23.096;2022-10-22T14:23:06;13.68;;;4.10;;
61962;SDS011;47927;42.646;23.096;2022-10-22T14:25:38;12.32;;;4.35;;
61962;SDS011;47927;42.646;23.096;2022-10-22T14:28:04;8.57;;;4.20;;
61962;SDS011;47927;42.646;23.096;2022-10-22T14:30:30;14.20;;;5.15;;
61962;SDS011;47927;42.646;23.096;2022-10-22T14:32:57;12.90;;;4.35;;
61962;SDS011;47927;42.646;23.096;2022-10-22T14:35:23;12.23;;;3.80;;
61962;SDS011;47927;42.646;23.096;2022-10-22T14:37:49;15.00;;;4.20;;
61962;SDS011;47927;42.646;23.096;2022-10-22T14:40:16;10.95;;;4.20;;
61962;SDS011;47927;42.646;23.096;2022-10-22T14:42:45;17.02;;;5.07;;
61962;SDS011;47927;42.646;23.096;2022-10-22T14:45:13;14.83;;;4.77;;
61962;SDS011;47927;42.646;23.096;2022-10-22T14:47:48;10.55;;;4.28;;
61962;SDS011;47927;42.646;23.096;2022-10-22T14:50:14;9.45;;;4.07;;
61962;SDS011;47927;42.646;23.096;2022-10-22T14:52:41;10.15;;;4.18;;
61962;SDS011;47927;42.646;23.096;2022-10-22T14:55:10;10.43;;;4.93;;
61962;SDS011;47927;42.646;23.096;2022-10-22T14:57:37;11.65;;;4.30;;
61962;SDS011;47927;42.646;23.096;2022-10-22T15:00:07;11.57;;;5.57;;
61962;SDS011;47927;42.646;23.096;2022-10-22T15:02:34;11.80;;;5.00;;
61962;SDS011;47927;42.646;23.096;2022-10-22T15:04:59;11.57;;;5.25;;
61962;SDS011;47927;42.646;23.096;2022-10-22T15:07:25;11.13;;;4.70;;
61962;SDS011;47927;42.646;23.096;2022-10-22T15:09:51;11.93;;;4.22;;
61962;SDS011;47927;42.646;23.096;2022-10-22T15:12:18;13.50;;;4.78;;
61962;SDS011;47927;42.646;23.096;2022-10-22T15:14:45;13.18;;;4.90;;
61962;SDS011;47927;42.646;23.096;2022-10-22T15:17:11;19.00;;;6.25;;
61962;SDS011;47927;42.646;23.096;2022-10-22T15:19:37;12.55;;;4.45;;
61962;SDS011;47927;42.646;23.096;2022-10-22T15:22:02;13.07;;;4.13;;
61962;SDS011;47927;42.646;23.096;2022-10-22T15:24:30;11.77;;;4.43;;
61962;SDS011;47927;42.646;23.096;2022-10-22T15:26:56;10.10;;;4.30;;
61962;SDS011;47927;42.646;23.096;2022-10-22T15:29:21;15.65;;;4.93;;
61962;SDS011;47927;42.646;23.096;2022-10-22T15:31:49;7.95;;;4.07;;
61962;SDS011;47927;42.646;23.096;2022-10-22T15:34:29;8.57;;;4.32;;
61962;SDS011;47927;42.646;23.096;2022-10-22T15:36:58;16.27;;;4.35;;
61962;SDS011;47927;42.646;23.096;2022-10-22T15:39:25;11.88;;;4.90;;
61962;SDS011;47927;42.646;23.096;2022-10-22T15:41:51;11.18;;;5.45;;
61962;SDS011;47927;42.646;23.096;2022-10-22T15:44:21;13.80;;;5.30;;
61962;SDS011;47927;42.646;23.096;2022-10-22T15:46:48;11.68;;;6.95;;
61962;SDS011;47927;42.646;23.096;2022-10-22T15:49:15;13.05;;;8.35;;
61962;SDS011;47927;42.646;23.096;2022-10-22T15:51:41;11.98;;;6.30;;
61962;SDS011;47927;42.646;23.096;2022-10-22T15:54:09;13.65;;;5.85;;
61962;SDS011;47927;42.646;23.096;2022-10-22T15:56:38;15.88;;;6.53;;
61962;SDS011;47927;42.646;23.096;2022-10-22T15:59:04;12.77;;;6.25;;
61962;SDS011;47927;42.646;23.096;2022-10-22T16:01:31;14.23;;;6.28;;
61962;SDS011;47927;42.646;23.096;2022-10-22T16:03:57;12.02;;;6.57;;
61962;SDS011;47927;42.646;23.096;2022-10-22T16:06:28;10.35;;;6.65;;
61962;SDS011;47927;42.646;23.096;2022-10-22T16:08:56;12.68;;;5.55;;
61962;SDS011;47927;42.646;23.096;2022-10-22T16:11:24;9.40;;;5.10;;
61962;SDS011;47927;42.646;23.096;2022-10-22T16:13:57;13.00;;;5.03;;
61962;SDS011;47927;42.646;23.096;2022-10-22T16:16:24;9.80;;;4.80;;
61962;SDS011;47927;42.646;23.096;2022-10-22T16:18:51;12.43;;;6.03;;
61962;SDS011;47927;42.646;23.096;2022-10-22T16:21:18;9.82;;;5.20;;
61962;SDS011;47927;42.646;23.096;2022-10-22T16:23:45;8.73;;;5.35;;
61962;SDS011;47927;42.646;23.096;2022-10-22T16:26:11;10.65;;;4.57;;
61962;SDS011;47927;42.646;23.096;2022-10-22T16:28:39;12.30;;;4.55;;
61962;SDS011;47927;42.646;23.096;2022-10-22T16:31:06;10.45;;;4.82;;
61962;SDS011;47927;42.646;23.096;2022-10-22T16:33:33;9.63;;;4.30;;
61962;SDS011;47927;42.646;23.096;2022-10-22T16:35:59;7.85;;;4.32;;